Time;durP1;ratioP1;P1;durP2;ratioP2;P2;SDS_P1;SDS_P2;PMS_P1;PMS_P2;Temp;Humidity;BMP_temperature;BMP_pressure;BME280_temperature;BME280_humidity;BME280_pressure;Samples;Min_cycle;Max_cycle;Signal;HPM_P1;HPM_P2
2022/07/28 00:00:18;;;;;;;4.85;3.20;;;11.70;99.90;;;;;;5146460;27;20039;-70
2022/07/28 00:02:43;;;;;;;7.88;3.05;;;11.70;99.90;;;;;;5114442;27;20057;-70
2022/07/28 00:05:09;;;;;;;9.35;3.25;;;11.70;99.90;;;;;;5149279;27;20074;-70
2022/07/28 00:07:35;;;;;;;3.33;2.70;;;11.60;99.90;;;;;;5124281;27;20076;-70
2022/07/28 00:10:01;;;;;;;5.72;2.92;;;11.60;99.90;;;;;;5120610;27;20495;-70
2022/07/28 00:12:27;;;;;;;5.32;3.80;;;11.60;99.90;;;;;;5148946;27;20058;-70
2022/07/28 00:14:52;;;;;;;5.78;3.25;;;11.60;99.90;;;;;;5143190;27;20123;-70
2022/07/28 00:17:18;;;;;;;4.35;3.28;;;11.60;99.90;;;;;;5144041;27;20463;-70
2022/07/28 00:19:44;;;;;;;3.63;2.60;;;11.60;99.90;;;;;;5109912;27;20050;-70
2022/07/28 00:22:09;;;;;;;3.45;3.10;;;11.60;99.90;;;;;;5113197;27;20043;-70
2022/07/28 00:24:36;;;;;;;13.20;3.25;;;11.60;99.90;;;;;;5148094;27;20041;-70
2022/07/28 00:27:03;;;;;;;5.75;3.00;;;11.60;99.90;;;;;;5138503;27;20480;-70
2022/07/28 00:29:29;;;;;;;3.67;3.15;;;11.60;99.90;;;;;;5146948;27;20126;-70
2022/07/28 00:31:55;;;;;;;4.53;3.22;;;11.60;99.90;;;;;;5108736;27;20114;-70
2022/07/28 00:34:20;;;;;;;9.80;3.58;;;11.70;99.90;;;;;;5141879;27;20042;-70
2022/07/28 00:36:46;;;;;;;4.82;3.35;;;11.70;99.90;;;;;;5135720;27;20503;-70
2022/07/28 00:39:11;;;;;;;6.93;3.30;;;11.60;99.90;;;;;;5113736;27;20058;-70
2022/07/28 00:41:37;;;;;;;3.50;3.20;;;11.60;99.90;;;;;;5121373;27;20050;-70
2022/07/28 00:44:06;;;;;;;6.68;3.72;;;11.60;99.90;;;;;;5143578;27;20042;-70
2022/07/28 00:46:32;;;;;;;4.47;2.95;;;11.60;99.90;;;;;;5115259;27;20046;-70
2022/07/28 00:48:57;;;;;;;4.43;3.38;;;11.60;99.90;;;;;;5148476;27;20055;-70
2022/07/28 00:51:25;;;;;;;4.20;3.53;;;11.50;99.90;;;;;;5127775;27;20047;-70
2022/07/28 00:53:52;;;;;;;7.35;3.17;;;11.50;99.90;;;;;;5130349;27;20050;-70
2022/07/28 00:56:19;;;;;;;5.80;3.05;;;11.50;99.90;;;;;;5097832;27;20051;-70
2022/07/28 00:58:46;;;;;;;4.32;3.33;;;11.50;99.90;;;;;;5126289;27;20051;-70
2022/07/28 01:01:16;;;;;;;4.00;2.80;;;11.40;99.90;;;;;;5119883;27;20730;-70
2022/07/28 01:03:45;;;;;;;3.03;2.67;;;11.20;99.90;;;;;;5123545;27;20043;-70
2022/07/28 01:06:39;;;;;;;4.00;2.55;;;11.20;99.90;;;;;;5126431;27;20047;-70
2022/07/28 01:09:39;;;;;;;4.30;2.67;;;10.80;99.90;;;;;;5112944;27;20053;-70
2022/07/28 01:12:36;;;;;;;3.08;2.78;;;10.70;99.90;;;;;;5111864;27;20043;-70
2022/07/28 01:15:23;;;;;;;3.67;2.83;;;10.60;99.90;;;;;;5127593;27;20050;-70
2022/07/28 01:18:02;;;;;;;6.40;2.90;;;10.60;99.90;;;;;;5114182;27;20047;-69
2022/07/28 01:20:34;;;;;;;5.70;2.78;;;10.50;99.90;;;;;;5126414;27;20559;-70
2022/07/28 01:23:31;;;;;;;5.57;2.42;;;10.60;99.90;;;;;;5124651;27;20051;-69
2022/07/28 01:26:13;;;;;;;2.92;2.72;;;10.60;99.90;;;;;;5125745;27;20046;-70
2022/07/28 01:29:14;;;;;;;4.53;3.20;;;10.70;99.90;;;;;;5125203;27;20047;-70
2022/07/28 01:31:47;;;;;;;4.25;2.90;;;10.70;99.90;;;;;;5125808;27;20050;-70
2022/07/28 01:34:17;;;;;;;3.08;2.60;;;10.80;99.90;;;;;;5126427;27;20043;-70
2022/07/28 01:36:52;;;;;;;9.35;3.78;;;10.80;99.90;;;;;;5118775;28;20508;-70
2022/07/28 01:39:19;;;;;;;3.42;3.05;;;10.80;99.90;;;;;;5117184;27;20089;-69
2022/07/28 01:41:46;;;;;;;4.38;2.58;;;10.70;99.90;;;;;;5125097;27;20039;-69
2022/07/28 01:44:21;;;;;;;5.40;3.00;;;10.80;99.90;;;;;;5103911;28;20067;-70
2022/07/28 01:46:50;;;;;;;4.38;3.05;;;10.80;99.90;;;;;;5116957;28;20058;-69
2022/07/28 01:49:18;;;;;;;3.22;2.67;;;10.70;99.90;;;;;;5125128;28;20043;-70
2022/07/28 01:51:44;;;;;;;;;;;10.80;99.90;;;;;;5125245;27;20526;-70
2022/07/28 01:54:12;;;;;;;5.00;3.03;;;10.80;99.90;;;;;;5114972;27;19923;-70
2022/07/28 01:56:39;;;;;;;3.17;2.65;;;10.70;99.90;;;;;;5122029;28;20073;-70
2022/07/28 01:59:08;;;;;;;2.85;2.65;;;10.70;99.90;;;;;;5125975;28;20087;-70
2022/07/28 02:01:37;;;;;;;2.88;2.60;;;10.70;99.90;;;;;;5117786;28;20449;-70
2022/07/28 02:04:05;;;;;;;4.45;3.15;;;10.70;99.90;;;;;;5125756;27;20047;-70
2022/07/28 02:06:33;;;;;;;4.93;3.00;;;10.70;99.90;;;;;;5126291;27;20043;-70
2022/07/28 02:09:02;;;;;;;7.72;4.00;;;10.60;99.90;;;;;;5130011;27;20043;-70
2022/07/28 02:11:39;;;;;;;9.00;3.45;;;10.70;99.90;;;;;;5111949;27;20518;-70
2022/07/28 02:14:16;;;;;;;3.58;3.25;;;10.70;99.90;;;;;;5126448;27;20384;-70
2022/07/28 02:16:48;;;;;;;3.72;3.30;;;10.60;99.90;;;;;;5126189;27;20083;-70
2022/07/28 02:19:16;;;;;;;5.25;3.22;;;10.60;99.90;;;;;;5118794;27;20045;-70
2022/07/28 02:21:43;;;;;;;3.95;3.50;;;10.50;99.90;;;;;;5131085;27;20134;-70
2022/07/28 02:24:11;;;;;;;3.15;2.85;;;10.50;99.90;;;;;;5129602;27;20496;-70
2022/07/28 02:26:40;;;;;;;7.03;3.38;;;10.50;99.90;;;;;;5129820;27;20810;-69
2022/07/28 02:29:11;;;;;;;5.40;3.58;;;10.50;99.90;;;;;;5118729;27;20388;-70
2022/07/28 02:31:52;;;;;;;5.45;3.85;;;10.50;99.90;;;;;;5130169;27;20043;-70
2022/07/28 02:34:21;;;;;;;3.38;3.08;;;10.60;99.90;;;;;;5117199;27;20414;-70
2022/07/28 02:36:55;;;;;;;24.88;3.80;;;10.60;99.90;;;;;;5129400;27;20107;-70
2022/07/28 02:39:35;;;;;;;5.00;3.72;;;10.50;99.90;;;;;;5129831;27;20047;-70
2022/07/28 02:42:08;;;;;;;6.50;3.50;;;10.60;99.90;;;;;;5128206;27;20174;-70
2022/07/28 02:44:42;;;;;;;8.80;4.05;;;10.50;99.90;;;;;;5111826;27;20055;-70
2022/07/28 02:47:11;;;;;;;5.03;3.53;;;10.50;99.90;;;;;;5112300;27;20048;-69
2022/07/28 02:49:39;;;;;;;7.32;3.95;;;10.50;99.90;;;;;;5125706;27;20043;-70
2022/07/28 02:52:07;;;;;;;5.28;3.60;;;10.40;99.90;;;;;;5130294;27;20088;-70
2022/07/28 02:54:34;;;;;;;5.55;3.85;;;10.40;99.90;;;;;;5128857;27;20055;-71
2022/07/28 02:57:03;;;;;;;4.25;3.95;;;10.40;99.90;;;;;;5131612;27;20039;-71
2022/07/28 02:59:30;;;;;;;4.10;3.70;;;10.40;99.90;;;;;;5128173;27;20056;-72
2022/07/28 03:01:57;;;;;;;4.70;4.03;;;10.40;99.90;;;;;;5134845;27;20066;-71
2022/07/28 03:07:09;;;;;;;3.83;3.53;;;10.40;99.90;;;;;;5147482;27;20538;-71
2022/07/28 03:09:40;;;;;;;4.40;3.53;;;10.30;99.90;;;;;;5129673;27;20145;-71
2022/07/28 03:12:06;;;;;;;6.68;3.67;;;10.30;99.90;;;;;;5118117;27;20046;-71
2022/07/28 03:14:32;;;;;;;4.47;3.75;;;10.30;99.90;;;;;;5149430;27;20097;-71
2022/07/28 03:16:58;;;;;;;9.80;3.97;;;10.30;99.90;;;;;;5114921;27;20047;-72
2022/07/28 03:19:23;;;;;;;6.80;3.72;;;10.30;99.90;;;;;;5123075;27;20053;-72
2022/07/28 03:21:51;;;;;;;4.50;4.03;;;10.20;99.90;;;;;;5148108;27;20125;-72
2022/07/28 03:24:21;;;;;;;7.55;3.10;;;10.10;99.90;;;;;;5129249;27;20035;-72
2022/07/28 03:26:58;;;;;;;5.35;3.80;;;10.20;99.90;;;;;;5126569;27;20423;-72
2022/07/28 03:29:26;;;;;;;5.40;3.70;;;10.20;99.90;;;;;;5107892;28;20059;-72
2022/07/28 03:31:53;;;;;;;8.45;4.30;;;10.10;99.90;;;;;;5119321;27;20046;-72
2022/07/28 03:34:19;;;;;;;3.95;3.55;;;10.10;99.90;;;;;;5132274;27;20503;-72
2022/07/28 03:36:48;;;;;;;5.65;3.80;;;10.10;99.90;;;;;;5131759;27;20047;-72
2022/07/28 03:39:17;;;;;;;5.78;4.15;;;10.10;99.90;;;;;;5135077;27;20518;-72
2022/07/28 03:41:44;;;;;;;9.95;3.10;;;10.20;99.90;;;;;;5122347;28;20043;-72
2022/07/28 03:44:12;;;;;;;3.50;2.70;;;10.00;99.90;;;;;;5143655;27;20047;-72
2022/07/28 03:46:45;;;;;;;3.65;3.22;;;9.90;99.90;;;;;;5095339;28;20085;-72
2022/07/28 03:49:10;;;;;;;4.95;3.90;;;9.90;99.90;;;;;;5122083;27;20050;-72
2022/07/28 03:51:36;;;;;;;5.72;4.18;;;9.90;99.90;;;;;;5122849;27;20162;-72
2022/07/28 03:54:02;;;;;;;3.88;3.47;;;9.90;99.90;;;;;;5111805;28;20043;-71
2022/07/28 03:56:27;;;;;;;6.57;3.78;;;9.90;99.90;;;;;;5127652;27;20046;-72
2022/07/28 03:58:53;;;;;;;4.80;4.35;;;9.90;99.90;;;;;;5093672;27;1048417;-71
2022/07/28 04:01:19;;;;;;;4.38;3.97;;;9.90;99.90;;;;;;5125103;27;20388;-71
2022/07/28 04:03:44;;;;;;;5.13;3.22;;;9.90;99.90;;;;;;5131191;27;20555;-71
2022/07/28 04:06:11;;;;;;;6.55;3.20;;;9.80;99.90;;;;;;5137409;27;20461;-71
2022/07/28 04:08:38;;;;;;;5.38;3.72;;;9.70;99.90;;;;;;5129207;27;20043;-71
2022/07/28 04:11:03;;;;;;;10.15;4.22;;;9.70;99.90;;;;;;5146553;27;20047;-70
2022/07/28 04:13:30;;;;;;;3.58;3.22;;;9.70;99.90;;;;;;5122364;27;20536;-70
2022/07/28 04:15:58;;;;;;;8.55;3.22;;;9.70;99.90;;;;;;5123466;27;20130;-70
2022/07/28 04:18:23;;;;;;;7.22;4.22;;;9.80;99.90;;;;;;5144903;27;20055;-70
2022/07/28 04:20:49;;;;;;;4.43;3.58;;;9.70;99.90;;;;;;5135060;27;20039;-70
2022/07/28 04:23:15;;;;;;;5.60;3.42;;;9.80;99.90;;;;;;5130641;27;20052;-70
2022/07/28 04:25:40;;;;;;;7.07;3.70;;;9.80;99.90;;;;;;5144272;27;20086;-70
2022/07/28 04:28:06;;;;;;;4.10;3.55;;;9.70;99.90;;;;;;5148378;27;20043;-70
2022/07/28 04:30:32;;;;;;;6.45;4.20;;;9.70;99.90;;;;;;5129867;27;20126;-70
2022/07/28 04:32:57;;;;;;;4.10;3.70;;;9.70;99.90;;;;;;5103302;27;20130;-69
2022/07/28 04:35:24;;;;;;;5.05;3.85;;;9.80;99.90;;;;;;5144496;27;20596;-69
2022/07/28 04:37:50;;;;;;;4.15;3.70;;;9.80;99.90;;;;;;5124126;27;20088;-70
2022/07/28 04:40:16;;;;;;;9.18;4.13;;;9.90;99.90;;;;;;5147962;27;20074;-70
2022/07/28 04:42:42;;;;;;;8.85;4.40;;;9.90;99.90;;;;;;5139215;27;20087;-69
2022/07/28 04:45:12;;;;;;;6.20;3.63;;;9.90;99.90;;;;;;5125524;27;20496;-70
2022/07/28 04:47:38;;;;;;;4.40;3.75;;;9.90;99.90;;;;;;5115192;27;20055;-70
2022/07/28 04:50:06;;;;;;;4.22;3.22;;;9.90;99.90;;;;;;5147421;27;20057;-70
2022/07/28 04:52:32;;;;;;;4.40;3.90;;;9.90;99.90;;;;;;5138646;27;20049;-69
2022/07/28 04:54:58;;;;;;;3.55;3.15;;;9.90;99.90;;;;;;5138681;27;20089;-70
2022/07/28 04:57:26;;;;;;;3.97;3.45;;;9.90;99.90;;;;;;5126106;27;20131;-70
2022/07/28 04:59:53;;;;;;;;;;;9.90;99.90;;;;;;5127700;27;20047;-70
2022/07/28 05:02:19;;;;;;;4.03;3.63;;;9.90;99.90;;;;;;5118947;27;20006;-70
2022/07/28 05:04:45;;;;;;;5.03;3.42;;;9.90;99.90;;;;;;5118760;27;20434;-70
2022/07/28 05:07:11;;;;;;;4.18;3.00;;;9.90;99.90;;;;;;5114082;27;20105;-70
2022/07/28 05:09:36;;;;;;;6.78;3.78;;;9.90;99.90;;;;;;5127125;27;20035;-70
2022/07/28 05:12:04;;;;;;;4.40;3.20;;;9.90;99.90;;;;;;5118556;27;20039;-70
2022/07/28 05:14:30;;;;;;;4.95;3.47;;;9.90;99.90;;;;;;5127721;27;20062;-70
2022/07/28 05:16:56;;;;;;;6.53;4.22;;;10.00;99.90;;;;;;5116503;27;20043;-70
2022/07/28 05:19:21;;;;;;;3.72;3.33;;;10.00;99.90;;;;;;5125908;27;20066;-71
2022/07/28 05:21:47;;;;;;;4.80;3.38;;;10.00;99.90;;;;;;5126456;27;20039;-71
2022/07/28 05:24:13;;;;;;;3.58;3.22;;;10.00;99.90;;;;;;5127330;27;20255;-70
2022/07/28 05:26:39;;;;;;;4.22;2.78;;;10.10;99.90;;;;;;5127484;27;20042;-71
2022/07/28 05:29:05;;;;;;;4.72;3.08;;;10.10;99.90;;;;;;5123356;27;20040;-71
2022/07/28 05:31:31;;;;;;;5.63;4.10;;;10.20;99.90;;;;;;5114226;27;20088;-70
2022/07/28 05:33:56;;;;;;;3.50;3.05;;;10.20;99.90;;;;;;5125794;27;20057;-71
2022/07/28 05:36:22;;;;;;;3.33;3.03;;;10.30;99.90;;;;;;5127404;27;20035;-70
2022/07/28 05:38:48;;;;;;;5.88;3.67;;;10.30;99.90;;;;;;5127072;27;20047;-71
2022/07/28 05:41:14;;;;;;;5.75;3.38;;;10.40;99.90;;;;;;5126416;27;20051;-71
2022/07/28 05:43:40;;;;;;;4.60;3.95;;;10.40;99.90;;;;;;5124780;27;20926;-70
2022/07/28 05:46:06;;;;;;;7.57;4.25;;;10.50;99.90;;;;;;5115381;27;20039;-71
2022/07/28 05:48:32;;;;;;;5.55;4.53;;;10.50;99.90;;;;;;5115325;27;20043;-71
2022/07/28 05:50:58;;;;;;;8.20;3.97;;;10.60;99.90;;;;;;5120527;28;20099;-71
2022/07/28 05:53:24;;;;;;;8.45;4.53;;;10.70;99.90;;;;;;5114834;27;20520;-72
2022/07/28 05:55:50;;;;;;;5.35;4.15;;;10.70;99.90;;;;;;5117716;27;20077;-72
2022/07/28 05:58:19;;;;;;;6.65;5.25;;;10.80;99.90;;;;;;5137434;27;20043;-71
2022/07/28 06:00:45;;;;;;;9.43;6.53;;;10.90;99.90;;;;;;5134813;27;20046;-70
2022/07/28 06:03:10;;;;;;;10.05;6.55;;;11.00;99.90;;;;;;5145839;27;20050;-71
2022/07/28 06:05:36;;;;;;;8.60;6.30;;;11.10;99.90;;;;;;5141990;27;20050;-71
2022/07/28 06:08:02;;;;;;;7.18;5.88;;;11.20;99.90;;;;;;5108436;28;20109;-71
2022/07/28 06:13:14;;;;;;;9.13;6.63;;;11.40;99.90;;;;;;5147704;27;20074;-71
2022/07/28 06:15:39;;;;;;;10.70;6.45;;;11.50;99.90;;;;;;5127002;27;20051;-71
2022/07/28 06:18:05;;;;;;;12.02;7.90;;;11.50;99.90;;;;;;5144728;27;20050;-71
2022/07/28 06:20:31;;;;;;;16.50;8.02;;;11.60;99.90;;;;;;5146037;27;20035;-71
2022/07/28 06:22:56;;;;;;;17.35;7.20;;;11.80;99.90;;;;;;5127539;27;20582;-71
2022/07/28 06:25:25;;;;;;;12.57;6.85;;;12.00;99.90;;;;;;5140456;27;20045;-72
2022/07/28 06:27:52;;;;;;;;;;;12.10;99.90;;;;;;5123941;27;20086;-72
2022/07/28 06:30:18;;;;;;;10.25;4.78;;;12.30;99.90;;;;;;5147463;27;19919;-72
2022/07/28 06:32:45;;;;;;;5.00;3.80;;;12.30;99.90;;;;;;5144437;27;20093;-72
2022/07/28 06:35:15;;;;;;;5.30;3.83;;;12.50;99.90;;;;;;5127834;27;20038;-72
2022/07/28 06:37:41;;;;;;;6.95;3.65;;;12.70;99.90;;;;;;5117761;27;20050;-69
2022/07/28 06:40:08;;;;;;;6.82;3.53;;;12.80;99.90;;;;;;5121690;27;20099;-71
2022/07/28 06:42:34;;;;;;;16.40;3.88;;;12.90;99.90;;;;;;5140894;27;20093;-72
2022/07/28 06:44:59;;;;;;;6.53;3.78;;;13.00;99.90;;;;;;5114898;27;20089;-72
2022/07/28 06:47:25;;;;;;;8.52;3.70;;;13.20;99.90;;;;;;5098932;28;20079;-72
2022/07/28 06:49:51;;;;;;;5.25;3.28;;;13.40;99.90;;;;;;5127549;27;20747;-72
2022/07/28 06:52:19;;;;;;;5.53;3.20;;;13.60;99.90;;;;;;5131510;27;20034;-73
2022/07/28 06:54:46;;;;;;;5.22;2.35;;;13.90;99.90;;;;;;5131798;27;20129;-72
2022/07/28 06:57:12;;;;;;;3.58;2.10;;;14.20;99.90;;;;;;5117477;27;21473;-73
2022/07/28 06:59:39;;;;;;;5.25;1.70;;;14.60;99.90;;;;;;5126748;27;20106;-72
2022/07/28 07:02:05;;;;;;;8.90;2.50;;;14.90;99.90;;;;;;5121805;27;20047;-72
2022/07/28 07:04:30;;;;;;;6.20;2.28;;;15.20;99.90;;;;;;5132316;27;20050;-73
2022/07/28 07:06:56;;;;;;;5.45;1.85;;;15.50;99.90;;;;;;5134682;27;20035;-75
2022/07/28 07:09:22;;;;;;;7.20;2.83;;;15.90;99.90;;;;;;5152451;27;20880;-73
2022/07/28 07:11:47;;;;;;;4.25;1.90;;;16.20;99.90;;;;;;5148468;27;20043;-73
2022/07/28 07:14:13;;;;;;;4.70;2.00;;;16.60;99.90;;;;;;5132277;27;20059;-72
2022/07/28 07:16:39;;;;;;;6.07;1.90;;;16.90;99.90;;;;;;5141309;27;20051;-71
2022/07/28 07:19:04;;;;;;;2.15;1.38;;;17.20;99.90;;;;;;5149880;27;20580;-72
2022/07/28 07:21:30;;;;;;;2.20;1.80;;;17.20;99.90;;;;;;5134439;27;20043;-73
2022/07/28 07:23:57;;;;;;;2.03;1.65;;;17.40;99.90;;;;;;5145272;27;20050;-73
2022/07/28 07:26:24;;;;;;;3.92;1.50;;;17.50;99.90;;;;;;5144823;27;20047;-73
2022/07/28 07:28:50;;;;;;;3.40;1.48;;;17.80;99.90;;;;;;5126505;27;20057;-73
2022/07/28 07:31:16;;;;;;;5.60;2.13;;;18.00;99.90;;;;;;5128913;27;20038;-73
2022/07/28 07:33:41;;;;;;;12.90;2.58;;;18.30;99.90;;;;;;5114062;27;20130;-72
2022/07/28 07:36:08;;;;;;;5.65;2.10;;;18.60;99.90;;;;;;5116583;27;20388;-72
2022/07/28 07:38:34;;;;;;;2.78;1.58;;;18.60;99.90;;;;;;5127967;27;20060;-72
2022/07/28 07:40:59;;;;;;;5.78;2.08;;;18.90;99.90;;;;;;5147365;27;20043;-71
2022/07/28 07:43:25;;;;;;;3.15;1.63;;;18.90;99.90;;;;;;5119617;27;20035;-71
2022/07/28 07:45:51;;;;;;;4.57;2.08;;;18.80;99.90;;;;;;5148619;27;20049;-71
2022/07/28 07:48:17;;;;;;;9.05;1.75;;;19.00;99.90;;;;;;5131455;27;20042;-70
2022/07/28 07:50:43;;;;;;;4.05;1.48;;;18.90;99.90;;;;;;5130943;27;20046;-71
2022/07/28 07:53:09;;;;;;;3.30;1.20;;;18.70;99.90;;;;;;5116243;27;20058;-71
2022/07/28 07:55:35;;;;;;;4.18;1.58;;;18.70;99.90;;;;;;5134925;27;20546;-71
2022/07/28 07:58:01;;;;;;;3.83;1.52;;;18.80;99.90;;;;;;5150321;27;20095;-71
2022/07/28 08:00:27;;;;;;;2.80;1.80;;;19.10;99.90;;;;;;5115057;27;20046;-71
2022/07/28 08:02:53;;;;;;;2.75;1.50;;;19.40;99.90;;;;;;5131059;27;20073;-71
2022/07/28 08:05:19;;;;;;;3.95;1.73;;;19.50;97.00;;;;;;5118132;27;20043;-71
2022/07/28 08:07:44;;;;;;;3.78;1.67;;;19.50;97.70;;;;;;5140199;27;20094;-71
2022/07/28 08:10:10;;;;;;;4.47;2.28;;;19.50;94.20;;;;;;5119640;27;20055;-71
2022/07/28 08:12:36;;;;;;;1.77;1.65;;;19.60;93.40;;;;;;5150052;27;20039;-71
2022/07/28 08:15:03;;;;;;;2.53;1.98;;;19.30;94.70;;;;;;5131060;27;20026;-71
2022/07/28 08:17:28;;;;;;;5.23;2.23;;;19.00;94.40;;;;;;5128561;27;20054;-71
2022/07/28 08:19:54;;;;;;;2.58;2.10;;;18.70;96.90;;;;;;5122802;27;20288;-71
2022/07/28 08:22:20;;;;;;;8.73;2.30;;;18.50;99.00;;;;;;5131404;27;20053;-71
2022/07/28 08:24:46;;;;;;;6.10;2.15;;;18.40;99.90;;;;;;5150381;27;20046;-72
2022/07/28 08:27:11;;;;;;;2.03;1.52;;;18.30;99.90;;;;;;5132034;27;20045;-71
2022/07/28 08:29:37;;;;;;;3.05;2.25;;;18.40;99.90;;;;;;5130693;27;20463;-72
2022/07/28 08:32:03;;;;;;;2.85;1.73;;;18.50;99.90;;;;;;5130819;27;20536;-71
2022/07/28 08:34:29;;;;;;;6.07;2.20;;;18.60;99.90;;;;;;5139744;27;20046;-72
2022/07/28 08:36:55;;;;;;;8.23;1.85;;;18.70;99.90;;;;;;5131602;27;20038;-71
2022/07/28 08:39:21;;;;;;;4.53;1.90;;;18.80;99.90;;;;;;5148132;27;20087;-70
2022/07/28 08:42:05;;;;;;;1.98;1.75;;;18.90;99.90;;;;;;5144713;27;20430;-69
2022/07/28 08:44:53;;;;;;;4.90;1.40;;;18.90;99.90;;;;;;5126590;27;20051;-71
2022/07/28 08:47:20;;;;;;;7.28;2.28;;;18.90;99.90;;;;;;5130640;27;20057;-72
2022/07/28 08:49:47;;;;;;;3.20;2.00;;;18.70;99.90;;;;;;5129288;27;20137;-70
2022/07/28 08:52:13;;;;;;;2.25;1.63;;;18.70;99.90;;;;;;5149184;27;20043;-71
2022/07/28 08:54:47;;;;;;;7.47;2.33;;;18.70;99.90;;;;;;5129860;27;20056;-70
2022/07/28 08:57:19;;;;;;;3.38;1.60;;;18.80;99.90;;;;;;5135856;27;20070;-71
2022/07/28 08:59:47;;;;;;;2.58;1.50;;;18.60;99.90;;;;;;5145852;27;20847;-71
